Time;durP1;ratioP1;P1;durP2;ratioP2;P2;SDS_P1;SDS_P2;PMS_P1;PMS_P2;Temp;Humidity;BMP_temperature;BMP_pressure;BME280_temperature;BME280_humidity;BME280_pressure;Samples;Min_cycle;Max_cycle;Signal;HPM_P1;HPM_P2
2022/08/04 00:01:16;;;;;;;2.23;1.90;;;21.00;99.90;;;;;;5033039;28;20460;-70
2022/08/04 00:03:48;;;;;;;2.93;2.07;;;21.00;99.90;;;;;;5032519;28;20459;-70
2022/08/04 00:06:21;;;;;;;1.93;1.80;;;20.90;99.90;;;;;;5032974;28;21172;-71
2022/08/04 00:08:51;;;;;;;2.10;1.90;;;20.90;99.90;;;;;;5033037;28;20816;-70
2022/08/04 00:11:24;;;;;;;2.07;1.87;;;20.90;99.90;;;;;;5033014;28;20469;-70
2022/08/04 00:13:55;;;;;;;2.10;1.90;;;20.90;99.90;;;;;;5032317;28;21031;-70
2022/08/04 00:16:23;;;;;;;2.80;2.50;;;20.80;99.90;;;;;;5032735;28;20476;-69
2022/08/04 00:18:55;;;;;;;2.80;2.50;;;20.80;99.90;;;;;;5032753;28;20465;-69
2022/08/04 00:21:24;;;;;;;2.20;2.00;;;20.70;99.90;;;;;;5032736;28;20470;-71
2022/08/04 00:23:52;;;;;;;2.50;2.00;;;20.70;99.90;;;;;;5032171;28;20507;-70
2022/08/04 00:26:19;;;;;;;2.40;2.20;;;20.60;99.90;;;;;;5032811;28;20538;-70
2022/08/04 00:28:47;;;;;;;2.70;2.00;;;20.60;99.90;;;;;;5032480;28;20530;-70
2022/08/04 00:31:15;;;;;;;2.77;2.10;;;20.60;99.90;;;;;;5032484;28;21028;-72
2022/08/04 00:33:45;;;;;;;2.00;1.80;;;20.50;99.90;;;;;;5031647;28;20485;-71
2022/08/04 00:36:12;;;;;;;2.47;1.80;;;20.50;99.90;;;;;;5031253;28;20552;-71
2022/08/04 00:38:41;;;;;;;2.63;2.13;;;20.50;99.90;;;;;;5032456;28;20535;-70
2022/08/04 00:41:19;;;;;;;2.30;2.10;;;20.50;99.90;;;;;;5032160;28;20469;-70
2022/08/04 00:44:04;;;;;;;3.03;2.23;;;20.50;99.90;;;;;;5032217;28;20465;-70
2022/08/04 00:46:56;;;;;;;2.10;1.90;;;20.50;99.90;;;;;;5031917;28;21071;-72
2022/08/04 00:49:59;;;;;;;2.50;2.30;;;20.50;99.90;;;;;;5032355;28;20830;-70
2022/08/04 00:52:37;;;;;;;2.37;2.17;;;20.40;99.90;;;;;;5031982;28;20538;-70
2022/08/04 00:55:17;;;;;;;2.43;2.10;;;20.40;99.90;;;;;;5031341;28;20551;-70
2022/08/04 00:58:05;;;;;;;2.43;2.23;;;20.40;99.90;;;;;;5031918;28;20988;-70
2022/08/04 01:00:42;;;;;;;1.93;1.83;;;20.30;99.90;;;;;;5032158;28;20461;-71
2022/08/04 01:03:17;;;;;;;2.17;2.00;;;20.30;99.90;;;;;;5031624;28;20461;-71
2022/08/04 01:05:57;;;;;;;2.20;2.00;;;20.30;99.90;;;;;;5031715;28;20855;-70
2022/08/04 01:08:40;;;;;;;2.03;1.87;;;20.30;99.90;;;;;;5031960;28;20461;-71
2022/08/04 01:11:21;;;;;;;2.20;2.00;;;20.20;99.90;;;;;;5031470;28;20464;-70
2022/08/04 01:14:03;;;;;;;2.50;1.80;;;20.20;99.90;;;;;;5031201;28;20489;-70
2022/08/04 01:16:34;;;;;;;1.93;1.70;;;20.20;99.90;;;;;;5031384;28;20857;-70
2022/08/04 01:19:03;;;;;;;2.40;2.20;;;20.20;99.90;;;;;;5031373;28;20465;-71
2022/08/04 01:22:06;;;;;;;2.17;2.00;;;20.20;99.90;;;;;;5031354;28;20523;-70
2022/08/04 01:25:02;;;;;;;2.30;1.90;;;20.10;99.90;;;;;;5031390;28;20814;-70
2022/08/04 01:27:49;;;;;;;2.70;2.50;;;20.00;99.90;;;;;;5002886;28;20866;-70
2022/08/04 01:30:18;;;;;;;2.90;2.00;;;20.00;99.90;;;;;;5031227;28;20465;-70
2022/08/04 01:32:51;;;;;;;2.00;1.90;;;20.00;99.90;;;;;;5031262;28;20567;-70
2022/08/04 01:35:23;;;;;;;2.20;2.00;;;20.00;99.90;;;;;;5030434;28;20468;-71
2022/08/04 01:38:00;;;;;;;2.70;2.20;;;19.90;99.90;;;;;;5031332;28;20461;-69
2022/08/04 01:40:27;;;;;;;1.77;1.67;;;19.90;99.90;;;;;;5031121;28;20475;-70
2022/08/04 01:42:55;;;;;;;2.13;1.90;;;19.90;99.90;;;;;;5031252;28;20457;-70
2022/08/04 01:45:24;;;;;;;1.63;1.53;;;19.90;99.90;;;;;;5030201;28;20473;-70
2022/08/04 01:47:53;;;;;;;2.47;2.27;;;19.90;99.90;;;;;;5031021;28;20461;-70
2022/08/04 01:50:21;;;;;;;1.80;1.70;;;19.90;99.90;;;;;;5030885;28;21030;-71
2022/08/04 01:52:48;;;;;;;2.17;1.97;;;19.80;99.90;;;;;;5030878;28;20546;-70
2022/08/04 01:55:16;;;;;;;2.13;1.93;;;19.80;99.90;;;;;;5030481;28;20464;-69
2022/08/04 01:57:44;;;;;;;3.30;2.20;;;19.80;99.90;;;;;;5030811;28;20844;-69
2022/08/04 02:00:13;;;;;;;6.80;2.37;;;19.80;99.90;;;;;;5030724;28;20469;-70
2022/08/04 02:02:41;;;;;;;2.13;2.00;;;19.80;99.90;;;;;;5030955;28;20956;-69
2022/08/04 02:05:10;;;;;;;1.93;1.83;;;19.70;99.90;;;;;;5029953;28;20468;-71
2022/08/04 02:07:54;;;;;;;2.73;2.10;;;19.70;99.90;;;;;;5030716;28;20481;-70
2022/08/04 02:10:27;;;;;;;2.40;2.20;;;19.70;99.90;;;;;;5030623;28;20457;-70
2022/08/04 02:13:06;;;;;;;1.90;1.80;;;19.60;99.90;;;;;;5030817;28;20481;-71
2022/08/04 02:15:42;;;;;;;2.50;2.17;;;19.60;99.90;;;;;;5029745;28;20472;-71
2022/08/04 02:18:19;;;;;;;2.23;2.00;;;19.60;99.90;;;;;;5030345;28;20515;-70
2022/08/04 02:20:48;;;;;;;2.60;2.13;;;19.60;99.90;;;;;;5030580;28;20460;-71
2022/08/04 02:23:22;;;;;;;2.57;2.37;;;19.50;99.90;;;;;;5108412;22;20499;-67
2022/08/04 02:25:57;;;;;;;1.83;1.70;;;19.50;99.90;;;;;;5050468;28;20511;-67
2022/08/04 02:28:30;;;;;;;1.80;1.70;;;19.50;99.90;;;;;;5050946;28;20467;-67
2022/08/04 02:31:04;;;;;;;3.03;2.27;;;19.50;99.90;;;;;;5050920;28;20460;-68
2022/08/04 02:33:38;;;;;;;1.87;1.73;;;19.50;99.90;;;;;;5050205;28;20476;-68
2022/08/04 02:36:06;;;;;;;2.40;2.20;;;19.40;99.90;;;;;;5051155;28;21023;-67
2022/08/04 02:38:52;;;;;;;1.60;1.50;;;19.40;99.90;;;;;;5050878;28;20468;-67
2022/08/04 02:41:21;;;;;;;2.50;2.30;;;19.40;99.90;;;;;;5050958;28;20790;-67
2022/08/04 02:43:49;;;;;;;2.70;2.50;;;19.40;99.90;;;;;;5050421;28;20456;-67
2022/08/04 02:46:18;;;;;;;1.90;1.67;;;19.30;99.90;;;;;;5050578;28;20475;-67
2022/08/04 02:48:48;;;;;;;2.23;2.03;;;19.30;99.90;;;;;;5050867;28;20455;-67
2022/08/04 02:51:18;;;;;;;2.00;1.80;;;19.30;99.90;;;;;;5050540;28;20464;-67
2022/08/04 02:53:46;;;;;;;2.07;1.87;;;19.30;99.90;;;;;;5050346;28;20549;-67
2022/08/04 02:56:15;;;;;;;3.60;1.80;;;19.20;99.90;;;;;;5050656;28;20488;-67
2022/08/04 02:58:46;;;;;;;1.60;1.50;;;19.20;99.90;;;;;;5052567;28;20539;-68
2022/08/04 03:01:12;;;;;;;2.37;2.17;;;19.20;99.90;;;;;;5054875;28;20464;-67
2022/08/04 03:03:46;;;;;;;3.60;2.00;;;19.20;99.90;;;;;;5054282;28;20464;-67
2022/08/04 03:07:04;;;;;;;2.20;1.80;;;19.10;99.90;;;;;;5054904;28;20483;-67
2022/08/04 03:09:56;;;;;;;2.27;2.07;;;19.10;99.90;;;;;;5054309;28;20467;-67
2022/08/04 03:12:56;;;;;;;2.83;2.60;;;19.10;99.90;;;;;;5014347;28;20460;-67
2022/08/04 03:15:45;;;;;;;2.20;2.00;;;19.10;99.90;;;;;;5054124;28;20451;-68
2022/08/04 03:18:51;;;;;;;2.47;2.27;;;19.10;99.90;;;;;;5054511;28;20463;-67
2022/08/04 03:21:42;;;;;;;1.97;1.70;;;19.00;99.90;;;;;;5051060;28;20464;-68
2022/08/04 03:24:44;;;;;;;2.20;2.00;;;19.00;99.90;;;;;;5053797;28;20464;-67
2022/08/04 03:27:19;;;;;;;2.13;1.93;;;19.00;99.90;;;;;;5054137;28;21051;-67
2022/08/04 03:30:04;;;;;;;2.10;1.90;;;19.00;99.90;;;;;;5054361;28;20455;-67
2022/08/04 03:33:03;;;;;;;2.00;1.83;;;19.00;99.90;;;;;;5054293;28;20464;-68
2022/08/04 03:35:52;;;;;;;2.00;1.80;;;19.00;99.90;;;;;;5054020;28;20462;-68
2022/08/04 03:39:01;;;;;;;1.77;1.63;;;19.00;99.90;;;;;;5054164;28;20826;-68
2022/08/04 03:41:41;;;;;;;2.30;2.10;;;18.90;99.90;;;;;;5054078;28;20947;-68
2022/08/04 03:44:42;;;;;;;1.93;1.67;;;18.90;99.90;;;;;;5053111;28;20474;-68
2022/08/04 03:47:37;;;;;;;2.07;1.90;;;18.90;99.90;;;;;;5054089;28;20470;-68
2022/08/04 03:50:22;;;;;;;2.43;2.10;;;18.80;99.90;;;;;;5050579;28;20952;-68
2022/08/04 03:53:24;;;;;;;2.47;2.20;;;18.70;99.90;;;;;;5054570;28;20452;-68
2022/08/04 03:56:24;;;;;;;4.13;1.97;;;18.70;99.90;;;;;;5054463;28;20487;-68
2022/08/04 03:59:26;;;;;;;2.20;1.87;;;18.70;99.90;;;;;;5053986;28;20517;-68
2022/08/04 04:02:17;;;;;;;1.73;1.63;;;18.70;99.90;;;;;;5053855;28;20463;-68
2022/08/04 04:04:58;;;;;;;2.53;2.33;;;18.70;99.90;;;;;;5053563;28;20865;-68
2022/08/04 04:07:58;;;;;;;2.13;1.93;;;18.70;99.90;;;;;;5053836;28;20475;-68
2022/08/04 04:10:35;;;;;;;2.60;2.40;;;18.70;99.90;;;;;;5053186;28;20459;-68
2022/08/04 04:13:23;;;;;;;2.30;2.10;;;18.70;99.90;;;;;;5053095;28;20525;-68
2022/08/04 04:16:27;;;;;;;1.77;1.67;;;18.70;99.90;;;;;;5053150;28;20489;-68
2022/08/04 04:19:13;;;;;;;2.27;1.90;;;18.70;99.90;;;;;;5053176;28;20467;-68
2022/08/04 04:22:02;;;;;;;2.37;2.17;;;18.70;99.90;;;;;;5052909;28;20463;-68
2022/08/04 04:24:42;;;;;;;2.87;2.10;;;18.70;99.90;;;;;;5052338;28;20468;-68
2022/08/04 04:27:18;;;;;;;2.30;2.10;;;18.70;99.90;;;;;;5052628;28;20538;-68
2022/08/04 04:30:11;;;;;;;1.70;1.60;;;18.70;99.90;;;;;;5053075;28;20819;-68
2022/08/04 04:33:01;;;;;;;2.30;2.10;;;18.70;99.90;;;;;;5034073;28;20499;-68
2022/08/04 04:35:37;;;;;;;1.77;1.67;;;18.70;99.90;;;;;;5052970;28;20452;-68
2022/08/04 04:38:54;;;;;;;1.70;1.60;;;18.70;99.90;;;;;;5052426;28;20509;-68
2022/08/04 04:41:36;;;;;;;3.00;2.27;;;18.70;99.90;;;;;;4971783;28;20616;-68
2022/08/04 04:44:23;;;;;;;1.90;1.67;;;18.70;99.90;;;;;;4970709;28;20834;-68
2022/08/04 04:47:00;;;;;;;3.07;2.30;;;18.70;99.90;;;;;;5026512;28;20797;-68
2022/08/04 04:49:34;;;;;;;2.37;2.17;;;18.70;99.90;;;;;;5052507;28;20489;-68
2022/08/04 04:52:09;;;;;;;2.23;2.03;;;18.80;99.90;;;;;;5052199;28;20459;-68
2022/08/04 04:54:42;;;;;;;2.50;2.03;;;18.90;99.90;;;;;;5051948;28;20839;-68
2022/08/04 04:57:14;;;;;;;2.27;2.00;;;18.90;99.90;;;;;;5051944;28;20484;-68
2022/08/04 04:59:49;;;;;;;2.30;2.10;;;19.00;99.90;;;;;;5052105;28;20471;-68
2022/08/04 05:02:50;;;;;;;3.53;2.40;;;19.00;99.90;;;;;;5051282;28;20525;-68
2022/08/04 05:05:56;;;;;;;2.17;2.00;;;19.00;99.90;;;;;;5010918;28;20881;-68
2022/08/04 05:08:42;;;;;;;2.30;2.10;;;19.00;99.90;;;;;;5018017;28;20471;-68
2022/08/04 05:11:27;;;;;;;2.80;2.47;;;19.10;99.90;;;;;;5051871;28;20524;-68
2022/08/04 05:13:59;;;;;;;2.00;1.80;;;19.20;99.90;;;;;;5051138;28;20491;-68
2022/08/04 05:16:32;;;;;;;3.30;2.50;;;19.30;99.90;;;;;;5051838;28;20463;-67
2022/08/04 05:19:12;;;;;;;2.60;2.33;;;19.40;99.90;;;;;;5051485;28;20950;-67
2022/08/04 05:21:43;;;;;;;2.67;2.47;;;19.40;99.90;;;;;;5051037;28;20464;-67
2022/08/04 05:24:15;;;;;;;2.53;2.33;;;19.50;99.90;;;;;;5051068;28;21076;-68
2022/08/04 05:26:45;;;;;;;2.53;2.33;;;19.50;99.90;;;;;;5051701;28;20898;-67
2022/08/04 05:29:21;;;;;;;2.80;2.53;;;19.50;99.90;;;;;;5031198;28;20980;-67
2022/08/04 05:31:52;;;;;;;2.37;2.17;;;19.60;99.90;;;;;;5030949;28;20497;-67
2022/08/04 05:34:23;;;;;;;2.40;2.20;;;19.70;99.90;;;;;;5016184;28;20490;-68
2022/08/04 05:36:55;;;;;;;2.33;2.13;;;19.80;99.90;;;;;;5010948;28;20488;-68
2022/08/04 05:39:26;;;;;;;2.50;2.30;;;19.90;99.90;;;;;;5011034;28;20476;-68
2022/08/04 05:41:53;;;;;;;2.90;1.93;;;19.90;99.90;;;;;;5011043;28;20470;-68
2022/08/04 05:44:22;;;;;;;2.07;1.87;;;20.00;99.90;;;;;;5010288;28;20468;-68
2022/08/04 05:46:52;;;;;;;5.30;2.90;;;20.10;99.90;;;;;;5011060;28;20930;-68
2022/08/04 05:49:20;;;;;;;5.80;3.90;;;20.20;99.90;;;;;;5010765;28;20470;-68
2022/08/04 05:51:48;;;;;;;7.50;3.87;;;20.30;99.90;;;;;;5011008;28;20476;-67
2022/08/04 05:54:16;;;;;;;7.30;4.20;;;20.50;99.90;;;;;;5010111;28;20486;-67
2022/08/04 05:56:44;;;;;;;7.70;4.00;;;20.50;99.90;;;;;;5010665;28;20491;-68
2022/08/04 05:59:12;;;;;;;6.10;3.60;;;20.60;99.90;;;;;;5010614;28;20470;-67
2022/08/04 06:01:40;;;;;;;3.00;2.70;;;20.80;99.90;;;;;;5010436;28;20472;-68
2022/08/04 06:04:08;;;;;;;5.10;2.40;;;20.90;99.90;;;;;;5010011;28;20470;-67
2022/08/04 06:06:35;;;;;;;2.40;2.20;;;21.00;99.90;;;;;;5010687;28;20481;-68
2022/08/04 06:09:02;;;;;;;2.97;2.70;;;21.10;99.90;;;;;;5010396;28;20466;-67
2022/08/04 06:11:29;;;;;;;2.30;2.10;;;21.30;99.90;;;;;;5010318;28;20469;-68
2022/08/04 06:14:00;;;;;;;2.83;2.33;;;21.40;99.90;;;;;;5009633;28;20991;-68
2022/08/04 06:16:32;;;;;;;3.80;2.60;;;21.50;99.90;;;;;;5010488;28;20481;-68
2022/08/04 06:19:07;;;;;;;2.50;2.30;;;21.60;99.90;;;;;;5010289;28;20486;-67
2022/08/04 06:21:37;;;;;;;2.67;2.47;;;21.70;99.90;;;;;;5010033;28;21171;-67
2022/08/04 06:24:08;;;;;;;2.17;2.00;;;21.80;99.90;;;;;;5009826;28;20541;-67
2022/08/04 06:26:36;;;;;;;2.33;2.13;;;22.00;99.90;;;;;;5009567;28;20908;-68
2022/08/04 06:29:10;;;;;;;2.83;2.60;;;22.10;99.90;;;;;;5011573;28;20476;-68
2022/08/04 06:31:45;;;;;;;2.93;2.53;;;22.20;99.90;;;;;;5037473;28;20987;-68
2022/08/04 06:34:14;;;;;;;2.77;2.47;;;22.30;99.90;;;;;;5027194;28;21011;-67
2022/08/04 06:36:43;;;;;;;3.50;2.40;;;22.50;99.90;;;;;;5029615;28;20487;-68
2022/08/04 06:39:11;;;;;;;2.40;2.20;;;22.60;99.90;;;;;;5048082;28;20970;-68
2022/08/04 06:41:46;;;;;;;2.67;1.80;;;22.80;99.90;;;;;;5051157;28;20467;-68
2022/08/04 06:44:15;;;;;;;2.10;1.97;;;23.00;99.90;;;;;;5048134;28;20460;-65
2022/08/04 06:46:43;;;;;;;2.40;2.20;;;23.20;99.90;;;;;;5048380;28;20494;-67
2022/08/04 06:49:11;;;;;;;2.07;1.87;;;23.30;99.90;;;;;;5048281;28;20576;-66
2022/08/04 06:51:39;;;;;;;2.10;1.90;;;23.50;99.90;;;;;;5048195;28;20470;-67
2022/08/04 06:54:06;;;;;;;2.50;2.20;;;23.50;99.90;;;;;;5047902;28;21011;-67
2022/08/04 06:56:36;;;;;;;2.40;2.10;;;23.60;99.90;;;;;;5049343;28;20485;-67
2022/08/04 06:59:04;;;;;;;2.27;2.07;;;23.70;99.90;;;;;;5047344;28;20456;-66
2022/08/04 07:01:35;;;;;;;2.33;2.13;;;23.90;99.90;;;;;;5028918;28;20467;-65
2022/08/04 07:04:03;;;;;;;2.33;2.13;;;24.00;99.90;;;;;;5028281;28;20904;-65
2022/08/04 07:06:30;;;;;;;2.27;2.07;;;24.20;99.90;;;;;;5024594;28;20503;-66
2022/08/04 07:08:57;;;;;;;2.50;2.23;;;24.40;99.90;;;;;;5028472;28;20475;-66
2022/08/04 07:11:25;;;;;;;2.00;1.83;;;24.60;99.90;;;;;;5028583;28;20980;-65
2022/08/04 07:13:53;;;;;;;2.10;1.93;;;24.70;99.90;;;;;;5028290;28;20887;-66
2022/08/04 07:16:23;;;;;;;1.40;1.30;;;25.00;99.90;;;;;;5029115;28;20492;-66
2022/08/04 07:18:51;;;;;;;2.17;1.90;;;25.20;99.90;;;;;;5028627;28;20475;-66
2022/08/04 07:21:22;;;;;;;2.10;1.80;;;25.40;99.90;;;;;;5028749;28;20471;-66
2022/08/04 07:23:49;;;;;;;2.03;1.70;;;25.50;99.60;;;;;;5027842;28;20557;-66
2022/08/04 07:26:17;;;;;;;2.43;1.70;;;25.70;99.50;;;;;;5028044;28;20488;-66
2022/08/04 07:28:45;;;;;;;2.10;1.90;;;25.90;98.90;;;;;;5027679;28;20460;-65
2022/08/04 07:31:17;;;;;;;1.87;1.77;;;26.00;98.60;;;;;;5027924;28;20483;-66
2022/08/04 07:33:45;;;;;;;2.07;1.97;;;26.00;99.00;;;;;;5034559;28;21289;-66
2022/08/04 07:36:14;;;;;;;3.37;2.07;;;26.10;99.20;;;;;;5047357;28;20587;-65
2022/08/04 07:38:42;;;;;;;1.90;1.80;;;26.20;99.70;;;;;;5047922;28;20650;-64
2022/08/04 07:41:09;;;;;;;2.10;1.90;;;26.40;99.00;;;;;;5048803;28;20476;-66
2022/08/04 07:43:37;;;;;;;1.97;1.80;;;26.50;99.70;;;;;;5047241;28;20475;-65
2022/08/04 07:46:04;;;;;;;2.70;2.27;;;26.50;98.10;;;;;;5051761;28;20522;-66
2022/08/04 07:48:31;;;;;;;3.90;1.97;;;26.60;97.90;;;;;;5051379;28;21092;-66
2022/08/04 07:50:59;;;;;;;2.23;2.03;;;26.70;98.20;;;;;;5050967;28;20474;-66
2022/08/04 07:53:28;;;;;;;1.83;1.73;;;26.80;98.00;;;;;;5051452;28;20500;-66
2022/08/04 07:55:55;;;;;;;3.70;2.17;;;26.80;97.70;;;;;;5051560;28;20487;-66
2022/08/04 07:58:22;;;;;;;2.03;1.83;;;26.90;98.20;;;;;;5051873;28;20983;-65
2022/08/04 08:00:49;;;;;;;2.30;2.10;;;27.00;98.50;;;;;;5051868;28;20464;-66
2022/08/04 08:03:16;;;;;;;4.80;1.90;;;27.00;98.60;;;;;;5052006;28;20459;-66
2022/08/04 08:05:43;;;;;;;2.70;2.40;;;27.20;98.20;;;;;;5051675;28;20483;-66
2022/08/04 08:08:10;;;;;;;1.80;1.70;;;27.20;98.00;;;;;;5049955;28;20494;-66
2022/08/04 08:10:39;;;;;;;1.90;1.80;;;27.30;98.10;;;;;;5051735;28;20492;-66
2022/08/04 08:13:07;;;;;;;2.03;1.90;;;27.40;98.60;;;;;;5051182;28;20890;-66
2022/08/04 08:15:35;;;;;;;2.07;1.87;;;27.50;97.70;;;;;;5050278;28;20483;-66
2022/08/04 08:18:02;;;;;;;2.10;1.90;;;27.50;97.00;;;;;;5051530;28;20472;-65
2022/08/04 08:20:30;;;;;;;2.30;1.90;;;27.60;97.50;;;;;;5050791;28;20468;-66
2022/08/04 08:22:57;;;;;;;2.43;2.03;;;27.70;97.00;;;;;;5051080;28;20562;-66
2022/08/04 08:25:24;;;;;;;2.20;2.00;;;27.80;96.30;;;;;;5050837;28;20460;-65
2022/08/04 08:27:52;;;;;;;2.07;1.90;;;27.90;96.20;;;;;;5050387;28;20475;-66
2022/08/04 08:30:19;;;;;;;2.20;2.00;;;28.00;96.40;;;;;;5050940;28;20472;-66
2022/08/04 08:32:46;;;;;;;1.93;1.73;;;28.10;96.40;;;;;;5051103;28;20474;-66
2022/08/04 08:35:12;;;;;;;2.93;1.80;;;28.20;96.50;;;;;;5050079;28;21068;-65
2022/08/04 08:37:47;;;;;;;2.00;1.90;;;28.40;95.50;;;;;;5051367;28;20538;-66
2022/08/04 08:40:29;;;;;;;2.43;1.80;;;28.40;95.50;;;;;;5099020;22;20500;-69
2022/08/04 08:43:26;;;;;;;3.20;2.43;;;28.50;96.20;;;;;;5032266;28;20560;-67
2022/08/04 08:46:11;;;;;;;1.80;1.70;;;28.60;96.70;;;;;;5031640;28;20476;-67
2022/08/04 08:49:01;;;;;;;1.93;1.70;;;28.70;96.10;;;;;;5032116;28;20469;-67
2022/08/04 08:52:00;;;;;;;2.00;1.80;;;28.80;96.00;;;;;;5031406;28;20472;-68
2022/08/04 08:54:47;;;;;;;1.87;1.77;;;29.00;96.30;;;;;;5021025;28;20530;-67
2022/08/04 08:57:25;;;;;;;4.03;2.20;;;29.10;95.90;;;;;;5050866;28;20488;-67
2022/08/04 09:00:08;;;;;;;3.40;2.07;;;29.20;95.10;;;;;;5051730;28;20471;-69
2022/08/04 09:03:10;;;;;;;1.97;1.83;;;29.30;94.80;;;;;;5051081;28;20838;-67
2022/08/04 09:05:55;;;;;;;2.30;2.10;;;29.40;95.90;;;;;;5050720;28;20460;-67
2022/08/04 09:08:50;;;;;;;3.90;2.30;;;29.50;97.30;;;;;;5051043;28;20471;-67
2022/08/04 09:11:20;;;;;;;1.80;1.70;;;29.70;96.50;;;;;;5050073;28;21001;-71
2022/08/04 09:13:54;;;;;;;2.60;2.07;;;29.80;96.30;;;;;;5037165;28;20500;-70
2022/08/04 09:16:35;;;;;;;2.37;2.17;;;29.90;94.50;;;;;;5045711;28;20510;-70
2022/08/04 09:19:08;;;;;;;2.10;1.90;;;30.00;95.50;;;;;;5050285;28;20475;-70
2022/08/04 09:21:41;;;;;;;2.73;2.43;;;30.10;93.90;;;;;;5049433;28;20472;-70
2022/08/04 09:24:14;;;;;;;2.07;1.90;;;30.20;95.20;;;;;;5049351;28;20472;-70
2022/08/04 09:26:46;;;;;;;2.30;2.10;;;30.30;97.00;;;;;;5050124;28;20476;-70
2022/08/04 09:29:19;;;;;;;2.60;2.40;;;30.40;95.00;;;;;;5049631;28;20475;-70
2022/08/04 09:31:56;;;;;;;2.47;2.27;;;30.40;93.20;;;;;;5049977;28;20828;-70
2022/08/04 09:34:39;;;;;;;2.43;2.23;;;30.40;94.20;;;;;;5049706;28;20521;-71
2022/08/04 09:37:14;;;;;;;2.17;1.97;;;30.60;93.70;;;;;;5049628;28;20479;-70
2022/08/04 09:39:49;;;;;;;2.43;2.23;;;30.60;93.10;;;;;;5048109;28;20467;-71
2022/08/04 09:42:25;;;;;;;2.60;2.40;;;30.70;92.30;;;;;;5028855;28;20975;-70
2022/08/04 09:45:00;;;;;;;2.33;2.13;;;30.80;93.50;;;;;;5029830;28;20837;-70
2022/08/04 09:47:34;;;;;;;2.00;1.77;;;30.90;95.60;;;;;;5030120;28;20770;-70
2022/08/04 09:50:12;;;;;;;2.10;1.90;;;31.00;94.20;;;;;;5029924;28;20830;-72
2022/08/04 09:52:46;;;;;;;2.67;2.10;;;31.10;93.70;;;;;;5029251;28;20461;-70
2022/08/04 09:55:26;;;;;;;3.00;1.70;;;31.20;89.50;;;;;;5029006;28;20558;-70
2022/08/04 09:58:00;;;;;;;2.20;2.00;;;31.40;91.70;;;;;;5029982;28;20999;-71
2022/08/04 10:00:31;;;;;;;2.13;1.93;;;31.50;91.30;;;;;;5030028;28;20821;-70
2022/08/04 10:03:01;;;;;;;2.60;2.40;;;31.60;90.70;;;;;;5028844;28;20892;-72
2022/08/04 10:05:42;;;;;;;2.10;1.90;;;31.70;90.30;;;;;;5029053;28;20465;-70
2022/08/04 10:08:29;;;;;;;1.93;1.83;;;31.70;90.60;;;;;;5029907;28;20557;-70
2022/08/04 10:11:03;;;;;;;1.80;1.70;;;31.80;90.20;;;;;;5029643;28;20479;-71
2022/08/04 10:13:47;;;;;;;1.80;1.70;;;31.90;90.10;;;;;;5028767;28;20472;-70
2022/08/04 10:16:37;;;;;;;2.40;2.20;;;32.10;91.10;;;;;;5029412;28;20600;-70
2022/08/04 10:19:17;;;;;;;2.50;2.30;;;32.10;86.40;;;;;;5030097;28;20894;-70
2022/08/04 10:21:54;;;;;;;2.20;2.10;;;32.10;85.30;;;;;;5029261;28;20472;-72
2022/08/04 10:24:32;;;;;;;2.67;2.47;;;32.10;88.60;;;;;;5028736;28;20471;-71
2022/08/04 10:27:05;;;;;;;1.50;1.40;;;32.20;85.40;;;;;;5028655;28;20487;-70
2022/08/04 10:29:41;;;;;;;1.93;1.83;;;32.30;82.30;;;;;;5029182;28;20469;-71
2022/08/04 10:32:14;;;;;;;2.20;2.00;;;32.40;86.80;;;;;;5029172;28;20472;-70
2022/08/04 10:34:48;;;;;;;2.00;1.90;;;32.50;86.30;;;;;;5028029;28;20460;-71
2022/08/04 10:37:21;;;;;;;2.40;2.20;;;32.70;89.80;;;;;;5029181;28;20488;-71
2022/08/04 10:42:48;;;;;;;3.50;2.10;;;33.00;84.20;;;;;;5028871;28;20822;-70
2022/08/04 10:45:19;;;;;;;2.23;1.80;;;33.00;84.20;;;;;;5028074;28;20465;-71
2022/08/04 10:47:54;;;;;;;1.83;1.73;;;33.10;82.90;;;;;;5029451;28;20488;-69
2022/08/04 10:50:24;;;;;;;2.20;2.00;;;33.20;85.50;;;;;;5028698;28;20468;-71
2022/08/04 10:52:59;;;;;;;2.70;1.87;;;33.30;87.30;;;;;;5028139;28;20475;-71
2022/08/04 10:55:35;;;;;;;2.17;1.97;;;33.40;89.70;;;;;;5027858;28;20905;-70
2022/08/04 10:58:05;;;;;;;2.13;1.93;;;33.50;87.80;;;;;;5028545;28;20960;-71
2022/08/04 11:00:36;;;;;;;2.00;1.90;;;33.60;87.40;;;;;;5029233;28;20477;-70
2022/08/04 11:03:08;;;;;;;2.50;2.07;;;33.80;87.00;;;;;;5028886;28;20465;-71
2022/08/04 11:05:42;;;;;;;2.17;1.97;;;33.80;86.60;;;;;;5026648;28;20461;-70
2022/08/04 11:08:12;;;;;;;2.20;2.00;;;33.90;88.10;;;;;;5029309;28;20972;-71
2022/08/04 11:10:45;;;;;;;2.10;1.90;;;34.00;87.20;;;;;;5029149;28;20968;-72
2022/08/04 11:13:16;;;;;;;1.93;1.70;;;34.10;82.00;;;;;;5029529;28;20511;-72
2022/08/04 11:15:49;;;;;;;2.67;2.03;;;34.10;82.80;;;;;;5028860;28;20492;-71
2022/08/04 11:18:24;;;;;;;2.40;2.20;;;34.20;81.50;;;;;;5028984;28;20479;-70
2022/08/04 11:20:56;;;;;;;2.30;2.10;;;34.20;79.60;;;;;;5032874;28;20495;-72
2022/08/04 11:23:28;;;;;;;1.77;1.67;;;34.20;79.40;;;;;;5032319;28;20555;-70
2022/08/04 11:26:00;;;;;;;2.03;1.67;;;34.10;81.30;;;;;;5033267;28;20480;-71
2022/08/04 11:28:38;;;;;;;2.37;2.17;;;34.20;82.40;;;;;;5030365;28;20464;-71
2022/08/04 11:31:09;;;;;;;2.40;1.90;;;34.30;79.30;;;;;;5049710;28;20486;-71
2022/08/04 11:33:45;;;;;;;1.90;1.80;;;34.40;80.20;;;;;;5052004;28;20464;-70
2022/08/04 11:36:22;;;;;;;2.60;2.00;;;34.40;81.20;;;;;;5050197;28;21096;-71
2022/08/04 11:38:59;;;;;;;2.30;2.10;;;34.40;78.00;;;;;;5032697;28;20811;-71
2022/08/04 11:41:35;;;;;;;2.00;1.90;;;34.30;77.20;;;;;;5031842;28;21013;-72
2022/08/04 11:44:04;;;;;;;2.60;2.40;;;34.30;82.80;;;;;;5030770;28;20504;-73
2022/08/04 11:46:38;;;;;;;2.73;2.53;;;34.40;79.80;;;;;;5031572;28;20481;-71
2022/08/04 11:49:10;;;;;;;2.33;2.13;;;34.60;79.40;;;;;;5031388;28;20526;-71
2022/08/04 11:51:40;;;;;;;2.30;2.10;;;34.70;78.60;;;;;;5031464;28;20465;-71
2022/08/04 11:54:09;;;;;;;3.13;2.20;;;34.80;79.10;;;;;;5031324;28;20880;-71
2022/08/04 11:56:36;;;;;;;2.40;2.20;;;34.80;76.40;;;;;;5030971;28;20488;-69
2022/08/04 11:59:06;;;;;;;1.77;1.67;;;34.80;77.70;;;;;;5031244;28;20985;-69
2022/08/04 12:01:42;;;;;;;2.70;2.50;;;34.90;82.40;;;;;;5030871;28;20555;-70
2022/08/04 12:04:17;;;;;;;2.40;2.20;;;35.10;77.90;;;;;;5030291;28;20987;-68
2022/08/04 12:06:52;;;;;;;2.50;2.07;;;35.20;82.30;;;;;;5031134;28;20476;-68
2022/08/04 12:09:28;;;;;;;2.07;1.97;;;35.30;80.90;;;;;;5030383;28;20471;-68
2022/08/04 12:12:06;;;;;;;2.30;2.10;;;35.30;81.00;;;;;;5040772;28;20459;-69
2022/08/04 12:14:43;;;;;;;3.23;2.10;;;35.40;84.10;;;;;;5050533;28;20493;-68
2022/08/04 12:17:12;;;;;;;2.80;2.60;;;35.50;84.70;;;;;;5051588;28;20553;-68
2022/08/04 12:19:44;;;;;;;2.50;1.93;;;35.70;82.90;;;;;;5051449;28;21494;-69
2022/08/04 12:22:18;;;;;;;2.53;2.33;;;35.80;82.50;;;;;;5051606;28;20475;-67
2022/08/04 12:24:48;;;;;;;2.80;2.60;;;35.90;84.70;;;;;;5048765;28;20543;-67
2022/08/04 12:27:19;;;;;;;2.50;2.30;;;35.90;83.50;;;;;;5050166;28;20494;-68
2022/08/04 12:29:46;;;;;;;2.60;2.40;;;35.90;83.70;;;;;;5051343;28;20982;-69
2022/08/04 12:32:26;;;;;;;2.27;2.07;;;35.90;84.60;;;;;;5050290;28;20475;-68
2022/08/04 12:35:01;;;;;;;2.40;2.03;;;36.10;84.40;;;;;;5050256;28;20467;-68
2022/08/04 12:37:37;;;;;;;2.60;2.40;;;36.20;83.80;;;;;;5051171;28;20498;-67
2022/08/04 12:40:12;;;;;;;2.60;2.30;;;36.20;81.90;;;;;;5050678;28;20476;-69
2022/08/04 12:42:45;;;;;;;2.27;2.07;;;36.10;81.10;;;;;;5051052;28;20499;-68
2022/08/04 12:45:13;;;;;;;2.10;1.90;;;36.00;82.00;;;;;;5051252;28;20475;-67
2022/08/04 12:47:42;;;;;;;4.80;2.20;;;35.70;81.90;;;;;;5050420;28;20533;-68
2022/08/04 12:50:14;;;;;;;2.30;2.10;;;35.30;82.80;;;;;;5050852;28;20471;-67
2022/08/04 12:52:48;;;;;;;3.00;2.70;;;35.00;83.60;;;;;;5050133;28;20522;-68
2022/08/04 12:55:17;;;;;;;2.43;2.07;;;34.70;85.50;;;;;;5050908;28;20582;-67
2022/08/04 12:57:45;;;;;;;2.60;2.40;;;34.80;87.00;;;;;;5048786;28;20579;-67
2022/08/04 13:00:24;;;;;;;2.70;2.50;;;34.80;84.20;;;;;;5050208;28;20965;-68
2022/08/04 13:02:52;;;;;;;2.20;2.00;;;34.60;84.70;;;;;;5050382;28;20550;-67
2022/08/04 13:05:21;;;;;;;2.83;2.33;;;34.40;86.30;;;;;;5049176;28;20521;-67
2022/08/04 13:07:52;;;;;;;2.63;2.43;;;34.20;86.40;;;;;;5050112;28;20534;-67
2022/08/04 13:10:24;;;;;;;2.70;2.50;;;34.00;84.00;;;;;;5050696;28;20471;-67
2022/08/04 13:12:55;;;;;;;2.53;2.33;;;33.80;84.30;;;;;;5049670;28;20472;-68
2022/08/04 13:15:24;;;;;;;2.53;2.00;;;33.80;82.30;;;;;;5050244;28;20460;-67
2022/08/04 13:17:55;;;;;;;2.10;2.00;;;34.00;85.10;;;;;;5049456;28;20581;-67
2022/08/04 13:20:26;;;;;;;2.50;2.03;;;34.40;89.10;;;;;;5050261;28;20859;-68
2022/08/04 13:22:59;;;;;;;2.33;2.00;;;34.60;85.80;;;;;;5050260;28;20459;-67
2022/08/04 13:25:29;;;;;;;2.20;2.00;;;34.80;84.80;;;;;;5049198;28;20476;-68
2022/08/04 13:27:57;;;;;;;2.37;2.17;;;34.70;81.90;;;;;;5037075;28;20552;-68
2022/08/04 13:30:25;;;;;;;2.47;2.27;;;34.50;82.80;;;;;;5030147;28;20467;-68
2022/08/04 13:32:55;;;;;;;2.50;2.30;;;34.40;83.10;;;;;;5030826;28;20516;-68